Terminal Aerodrome Forecast
Issued by NWS Pittsburgh, PA

Current Version | Previous Version | Text Only | Print | Product List | Glossary Off
Versions: 1 2 3 4 5 6 7 8 9 10 11 12 13 14 15 16 17 18 19 20 21 22 23 24 25 26 27 28 29 30

601
FTUS41 KPBZ 091429 AAA
TAFPIT
TAF AMD
KPIT 091429Z 0914/1018 29006KT 1SM -SN BR OVC006
      TEMPO 0914/0916 1/2SM SN FG BKN006
     FM091700 28005KT 3SM -SHSN BR OVC010
     FM100100 30008KT P6SM BKN015
     FM101500 26010KT 5SM -SHSN BKN015=

USA.gov is the U.S. government's official web portal to all federal, state and local government web resources and services.